createdAt,value
2023-11-12T00:01:51.833Z,58.62
2023-11-12T00:04:23.599Z,58.48
2023-11-12T00:06:52.145Z,58.13
2023-11-12T00:09:23.385Z,58.93
2023-11-12T00:11:51.595Z,58.45
2023-11-12T00:14:19.755Z,58.20
2023-11-12T00:16:47.885Z,58.95
2023-11-12T00:19:21.717Z,59.05
2023-11-12T00:21:50.958Z,59.21
2023-11-12T00:24:19.033Z,58.93
2023-11-12T00:26:49.755Z,59.26
2023-11-12T00:29:18.449Z,59.24
2023-11-12T00:31:46.554Z,58.64
2023-11-12T00:34:14.530Z,59.34
2023-11-12T00:36:44.173Z,59.26
2023-11-12T00:39:13.687Z,59.48
2023-11-12T00:41:41.650Z,59.53
2023-11-12T00:44:12.011Z,60.45
2023-11-12T00:46:42.221Z,60.49
2023-11-12T00:49:10.653Z,61.55
2023-11-12T00:51:38.614Z,61.68
2023-11-12T00:54:07.115Z,62.04
2023-11-12T00:56:36.400Z,62.47
2023-11-12T00:59:06.325Z,63.04
2023-11-12T01:01:35.115Z,62.81
2023-11-12T01:04:03.601Z,63.59
2023-11-12T01:06:31.771Z,63.50
2023-11-12T01:08:59.765Z,63.48
2023-11-12T01:11:27.795Z,64.33
2023-11-12T01:13:58.590Z,64.33
2023-11-12T01:16:27.133Z,64.42
2023-11-12T01:18:55.875Z,64.51
2023-11-12T01:21:23.872Z,65.15
2023-11-12T01:23:51.879Z,65.29
2023-11-12T01:26:20.034Z,66.17
2023-11-12T01:28:48.134Z,65.85
2023-11-12T01:31:17.587Z,65.84
2023-11-12T01:33:45.931Z,66.10
2023-11-12T01:36:13.909Z,66.53
2023-11-12T01:38:41.841Z,66.15
2023-11-12T01:41:10.359Z,66.03
2023-11-12T01:43:38.325Z,65.49
2023-11-12T01:46:08.828Z,65.37
2023-11-12T01:48:38.999Z,65.77
2023-11-12T01:51:08.356Z,65.94
2023-11-12T01:53:39.945Z,66.01
2023-11-12T01:56:13.891Z,66.74
2023-11-12T01:58:45.229Z,66.71
2023-11-12T02:01:14.617Z,67.50
2023-11-12T02:03:44.771Z,67.09
2023-11-12T02:06:14.065Z,67.04
2023-11-12T02:08:42.182Z,68.54
2023-11-12T02:11:13.522Z,69.22
2023-11-12T02:13:44.317Z,69.09
2023-11-12T02:16:12.466Z,68.91
2023-11-12T02:18:45.734Z,68.27
2023-11-12T02:21:15.201Z,67.83
2023-11-12T02:23:44.547Z,66.68
2023-11-12T02:26:13.106Z,66.78
2023-11-12T02:28:41.023Z,66.41
2023-11-12T02:31:09.087Z,65.99
2023-11-12T02:33:39.925Z,66.15
2023-11-12T02:36:09.846Z,65.97
2023-11-12T02:38:37.838Z,66.11
2023-11-12T02:41:09.554Z,67.23
2023-11-12T02:43:37.558Z,67.35
2023-11-12T02:46:06.018Z,67.32
2023-11-12T02:48:59.490Z,67.57
2023-11-12T02:51:27.778Z,68.23
2023-11-12T02:53:57.601Z,67.89
2023-11-12T02:56:29.454Z,67.77
2023-11-12T02:58:57.440Z,67.15
2023-11-12T03:01:26.977Z,67.42
2023-11-12T03:03:55.045Z,67.04
2023-11-12T03:06:24.181Z,66.59
2023-11-12T03:08:52.170Z,67.23
2023-11-12T03:11:20.170Z,67.12
2023-11-12T03:13:49.728Z,66.44
2023-11-12T03:16:17.718Z,67.40
2023-11-12T03:18:47.556Z,66.35
2023-11-12T03:21:15.572Z,66.52
2023-11-12T03:23:43.502Z,66.37
2023-11-12T03:26:11.472Z,66.66
2023-11-12T03:28:39.826Z,66.84
2023-11-12T03:31:09.295Z,66.78
2023-11-12T03:33:37.305Z,66.63
2023-11-12T03:36:06.277Z,66.93
2023-11-12T03:38:34.442Z,66.30
2023-11-12T03:41:02.563Z,66.50
2023-11-12T03:43:30.551Z,66.80
2023-11-12T03:45:58.728Z,68.33
2023-11-12T03:48:28.040Z,67.17
2023-11-12T03:50:55.980Z,67.49
2023-11-12T03:53:23.902Z,67.14
2023-11-12T03:55:51.978Z,67.43
2023-11-12T03:58:20.388Z,68.82
2023-11-12T04:00:48.650Z,69.92
2023-11-12T04:03:18.485Z,70.04
2023-11-12T04:05:47.879Z,69.81
2023-11-12T04:08:16.210Z,70.51
2023-11-12T04:10:44.259Z,71.03
2023-11-12T04:13:12.315Z,70.99
2023-11-12T04:15:40.459Z,70.97
2023-11-12T04:18:08.590Z,71.85
2023-11-12T04:20:36.842Z,70.18
2023-11-12T04:23:06.176Z,69.81
2023-11-12T04:25:34.414Z,71.28
2023-11-12T04:28:02.347Z,70.52
2023-11-12T04:30:30.844Z,70.62
2023-11-12T04:33:02.313Z,70.99
2023-11-12T04:35:30.509Z,70.18
2023-11-12T04:37:58.518Z,69.87
2023-11-12T04:40:27.859Z,68.48
2023-11-12T04:42:56.163Z,70.21
2023-11-12T04:45:25.698Z,70.84
2023-11-12T04:47:53.723Z,70.06
2023-11-12T04:50:21.711Z,69.63
2023-11-12T04:52:49.748Z,68.16
2023-11-12T04:55:17.821Z,68.25
2023-11-12T04:57:47.287Z,67.29
2023-11-12T05:00:16.348Z,67.12
2023-11-12T05:02:46.161Z,66.92
2023-11-12T05:05:14.602Z,66.36
2023-11-12T05:07:42.629Z,66.15
2023-11-12T05:10:12.482Z,66.33
2023-11-12T05:12:40.835Z,65.79
2023-11-12T05:15:11.501Z,66.33
2023-11-12T05:17:39.560Z,66.12
2023-11-12T05:20:09.297Z,65.01
2023-11-12T05:22:38.263Z,64.98
2023-11-12T05:25:07.850Z,65.64
2023-11-12T05:27:37.573Z,65.90
2023-11-12T05:30:06.559Z,65.70
2023-11-12T05:32:36.193Z,65.06
2023-11-12T05:35:04.365Z,65.33
2023-11-12T05:37:32.464Z,64.48
2023-11-12T05:40:00.369Z,64.89
2023-11-12T05:42:28.407Z,65.26
2023-11-12T05:44:56.341Z,64.97
2023-11-12T05:47:25.009Z,63.96
2023-11-12T05:49:54.357Z,64.44
2023-11-12T05:52:22.293Z,63.96
2023-11-12T05:54:50.424Z,63.76
2023-11-12T05:57:18.460Z,63.84
2023-11-12T05:59:48.496Z,64.71
2023-11-12T06:02:16.438Z,64.60
2023-11-12T06:04:44.383Z,64.32
2023-11-12T06:07:13.959Z,64.78
2023-11-12T06:09:42.124Z,65.02
2023-11-12T06:12:10.313Z,64.86
2023-11-12T06:14:40.148Z,63.81
2023-11-12T06:17:08.092Z,64.27
2023-11-12T06:19:37.414Z,64.18
2023-11-12T06:22:05.835Z,64.42
2023-11-12T06:24:35.207Z,64.38
2023-11-12T06:27:03.249Z,64.70
2023-11-12T06:29:31.179Z,64.97
2023-11-12T06:31:59.168Z,65.08
2023-11-12T06:34:27.146Z,64.86
2023-11-12T06:36:55.293Z,64.86
2023-11-12T06:39:23.203Z,64.34
2023-11-12T06:41:52.457Z,63.45
2023-11-12T06:44:21.077Z,62.50
2023-11-12T06:46:49.067Z,62.79
2023-11-12T06:49:17.040Z,62.45
2023-11-12T06:51:45.164Z,63.47
2023-11-12T06:54:13.806Z,63.10
2023-11-12T06:56:41.878Z,63.61
2023-11-12T06:59:11.233Z,63.77
2023-11-12T07:01:40.189Z,64.19
2023-11-12T07:04:08.596Z,62.25
2023-11-12T07:06:36.636Z,61.28
2023-11-12T07:09:05.303Z,61.14
2023-11-12T07:11:33.357Z,61.69
2023-11-12T07:14:01.654Z,60.64
2023-11-12T07:16:31.049Z,61.36
2023-11-12T07:18:59.231Z,60.80
2023-11-12T07:21:28.904Z,61.09
2023-11-12T07:23:57.551Z,62.00
2023-11-12T07:26:26.384Z,62.59
2023-11-12T07:28:54.587Z,63.06
2023-11-12T07:31:25.340Z,62.22
2023-11-12T07:33:55.057Z,61.28
2023-11-12T07:36:23.356Z,61.54
2023-11-12T07:38:51.958Z,60.66
2023-11-12T07:41:21.114Z,60.86
2023-11-12T07:43:49.170Z,61.43
2023-11-12T07:46:17.420Z,60.66
2023-11-12T07:48:45.651Z,60.52
2023-11-12T07:51:15.047Z,61.55
2023-11-12T07:53:45.715Z,61.22
2023-11-12T07:56:13.859Z,60.91
2023-11-12T07:58:43.838Z,64.68
2023-11-12T08:01:16.811Z,65.31
2023-11-12T08:03:44.789Z,63.88
2023-11-12T08:06:12.986Z,59.87
2023-11-12T08:08:43.969Z,58.74
2023-11-12T08:11:11.911Z,58.78
2023-11-12T08:13:40.208Z,59.04
2023-11-12T08:16:09.239Z,58.73
2023-11-12T08:18:37.413Z,58.54
2023-11-12T08:21:07.016Z,58.58
2023-11-12T08:23:35.018Z,59.28
2023-11-12T08:26:05.984Z,59.83
2023-11-12T08:28:34.242Z,62.46
2023-11-12T08:31:02.184Z,61.73
2023-11-12T08:33:30.212Z,61.51
2023-11-12T08:35:58.222Z,60.50
2023-11-12T08:38:26.207Z,59.69
2023-11-12T08:40:55.141Z,58.28
2023-11-12T08:43:25.435Z,57.60
2023-11-12T08:45:53.512Z,56.60
2023-11-12T08:48:21.721Z,54.92
2023-11-12T08:50:52.043Z,54.87
2023-11-12T08:53:20.041Z,53.44
2023-11-12T08:55:47.930Z,52.52
2023-11-12T08:58:15.928Z,51.58
2023-11-12T09:00:45.258Z,51.36
2023-11-12T09:03:13.206Z,50.23
2023-11-12T09:05:41.382Z,51.04
2023-11-12T09:08:09.361Z,51.20
2023-11-12T09:10:37.369Z,52.83
2023-11-12T09:13:05.474Z,52.84
2023-11-12T09:15:34.120Z,50.91
2023-11-12T09:18:03.462Z,51.04
2023-11-12T09:20:31.452Z,50.57
2023-11-12T09:22:59.476Z,49.30
2023-11-12T09:25:28.194Z,49.12
2023-11-12T09:27:56.973Z,47.69
2023-11-12T09:30:25.306Z,46.53
2023-11-12T09:32:53.551Z,46.53
2023-11-12T09:35:22.925Z,45.92
2023-11-12T09:37:51.792Z,45.35
2023-11-12T09:40:21.506Z,45.90
2023-11-12T09:42:54.462Z,46.77
2023-11-12T09:45:22.892Z,47.06
2023-11-12T09:48:04.608Z,46.53
2023-11-12T09:50:35.319Z,47.55
2023-11-12T09:53:04.486Z,47.97
2023-11-12T09:55:32.841Z,47.96
2023-11-12T09:58:02.679Z,48.60
2023-11-12T10:00:36.126Z,49.82
2023-11-12T10:03:09.594Z,49.56
2023-11-12T10:05:40.693Z,49.96
2023-11-12T10:08:08.792Z,50.73
2023-11-12T10:10:37.933Z,50.24
2023-11-12T10:13:06.409Z,50.59
2023-11-12T10:15:36.006Z,51.54
2023-11-12T10:18:05.402Z,51.57
2023-11-12T10:20:42.098Z,51.04
2023-11-12T10:23:32.950Z,50.76
2023-11-12T10:26:03.542Z,52.04
2023-11-12T10:28:36.059Z,52.10
2023-11-12T10:31:04.301Z,51.30
2023-11-12T10:33:32.618Z,51.68
2023-11-12T10:36:09.128Z,51.17
2023-11-12T10:38:49.455Z,52.42
2023-11-12T10:41:18.002Z,52.19
2023-11-12T10:43:59.509Z,52.31
2023-11-12T10:46:27.841Z,51.86
2023-11-12T10:48:58.359Z,51.53
2023-11-12T10:51:28.156Z,52.79
2023-11-12T10:54:00.441Z,53.48
2023-11-12T10:56:29.589Z,52.29
2023-11-12T10:58:58.963Z,52.48
2023-11-12T11:01:27.518Z,52.79
2023-11-12T11:03:55.987Z,53.29
2023-11-12T11:06:28.141Z,53.64
2023-11-12T11:08:58.081Z,52.55
2023-11-12T11:11:27.343Z,52.48
2023-11-12T11:13:55.354Z,52.70
2023-11-12T11:16:47.368Z,53.51
2023-11-12T11:19:15.602Z,53.89
2023-11-12T11:21:43.812Z,53.22
2023-11-12T11:24:46.005Z,53.94
2023-11-12T11:27:14.466Z,54.14
2023-11-12T11:30:10.968Z,53.93
2023-11-12T11:32:39.383Z,53.99
2023-11-12T11:35:19.460Z,53.78
2023-11-12T11:38:10.185Z,54.71
2023-11-12T11:40:43.553Z,54.88
2023-11-12T11:43:33.239Z,55.22
2023-11-12T11:46:12.890Z,55.37
2023-11-12T11:49:14.368Z,55.21
2023-11-12T11:51:47.209Z,55.30
2023-11-12T11:54:18.445Z,53.96
2023-11-12T11:56:48.052Z,54.83
2023-11-12T11:59:16.803Z,55.16
2023-11-12T12:01:47.721Z,54.72
2023-11-12T12:04:16.579Z,53.89
2023-11-12T12:06:46.246Z,54.34
2023-11-12T12:09:18.396Z,53.05
2023-11-12T12:11:54.697Z,53.19
2023-11-12T12:14:25.531Z,51.87
2023-11-12T12:16:55.663Z,51.19
2023-11-12T12:19:24.786Z,50.86
2023-11-12T12:21:56.795Z,50.32
2023-11-12T12:24:25.091Z,51.35
2023-11-12T12:26:58.104Z,50.94
2023-11-12T12:29:27.015Z,50.45
2023-11-12T12:31:59.138Z,51.43
2023-11-12T12:34:27.581Z,51.35
2023-11-12T12:37:06.631Z,51.76
2023-11-12T12:39:55.852Z,50.10
2023-11-12T12:42:28.750Z,50.35
2023-11-12T12:44:58.456Z,50.82
2023-11-12T12:47:31.650Z,49.73
2023-11-12T12:50:00.521Z,50.00
2023-11-12T12:52:28.846Z,49.48
2023-11-12T12:54:57.594Z,50.11
2023-11-12T12:57:27.477Z,50.02
2023-11-12T12:59:56.225Z,49.91
2023-11-12T13:02:24.248Z,49.67
2023-11-12T13:04:53.963Z,49.61
2023-11-12T13:07:25.919Z,49.43
2023-11-12T13:09:58.326Z,50.58
2023-11-12T13:12:32.011Z,49.99
2023-11-12T13:14:59.995Z,50.48
2023-11-12T13:17:28.060Z,50.80
2023-11-12T13:19:55.979Z,50.93
2023-11-12T13:22:24.142Z,50.42
2023-11-12T13:24:52.165Z,51.81
2023-11-12T13:27:20.289Z,51.43
2023-11-12T13:29:49.598Z,51.38
2023-11-12T13:32:19.521Z,52.34
2023-11-12T13:34:47.450Z,52.00
2023-11-12T13:37:16.814Z,51.02
2023-11-12T13:39:44.887Z,51.12
2023-11-12T13:42:12.962Z,51.67
2023-11-12T13:44:40.962Z,52.54
2023-11-12T13:47:10.489Z,52.43
2023-11-12T13:49:38.807Z,52.63
2023-11-12T13:52:07.437Z,52.43
2023-11-12T13:54:36.424Z,52.84
2023-11-12T13:57:04.825Z,52.75
2023-11-12T13:59:32.802Z,52.39
2023-11-12T14:02:03.788Z,52.72
2023-11-12T14:04:33.286Z,52.23
2023-11-12T14:07:01.587Z,52.56
2023-11-12T14:09:33.693Z,52.07
2023-11-12T14:12:02.099Z,52.22
2023-11-12T14:14:30.051Z,52.94
2023-11-12T14:17:00.683Z,53.69
2023-11-12T14:19:28.934Z,54.25
2023-11-12T14:21:58.310Z,53.93
2023-11-12T14:24:26.789Z,53.99
2023-11-12T14:26:55.065Z,53.50
2023-11-12T14:29:22.987Z,53.91
2023-11-12T14:31:51.858Z,53.49
2023-11-12T14:34:19.878Z,55.06
2023-11-12T14:36:47.892Z,54.81
2023-11-12T14:39:19.436Z,54.85
2023-11-12T14:41:47.552Z,52.21
2023-11-12T14:44:15.530Z,51.91
2023-11-12T14:46:44.897Z,51.42
2023-11-12T14:49:12.956Z,51.88
2023-11-12T14:51:42.453Z,52.70
2023-11-12T14:54:10.494Z,54.73
2023-11-12T14:56:39.830Z,54.42
2023-11-12T14:59:08.063Z,54.15
2023-11-12T15:01:37.277Z,56.81
2023-11-12T15:04:05.835Z,56.57
2023-11-12T15:06:34.006Z,55.85
2023-11-12T15:09:02.206Z,56.56
2023-11-12T15:11:35.009Z,56.23
2023-11-12T15:14:11.661Z,56.91
2023-11-12T15:16:40.396Z,56.64
2023-11-12T15:19:11.597Z,56.80
2023-11-12T15:21:43.289Z,56.39
2023-11-12T15:24:13.069Z,56.24
2023-11-12T15:26:42.551Z,56.76
2023-11-12T15:29:12.005Z,57.65
2023-11-12T15:31:40.055Z,58.50
2023-11-12T15:34:11.730Z,59.79
2023-11-12T15:36:40.148Z,60.73
2023-11-12T15:39:09.643Z,61.18
2023-11-12T15:41:37.717Z,62.23
2023-11-12T15:44:08.475Z,62.60
2023-11-12T15:46:40.097Z,61.14
2023-11-12T15:49:09.247Z,61.03
2023-11-12T15:51:37.281Z,60.71
2023-11-12T15:54:05.861Z,61.15
2023-11-12T15:56:33.773Z,62.07
2023-11-12T15:59:01.978Z,62.92
2023-11-12T16:01:30.372Z,63.02
2023-11-12T16:03:59.964Z,63.45
2023-11-12T16:06:31.265Z,62.69
2023-11-12T16:08:59.350Z,63.08
2023-11-12T16:11:29.856Z,63.35
2023-11-12T16:13:59.065Z,63.38
2023-11-12T16:16:27.343Z,64.01
2023-11-12T16:18:55.681Z,64.36
2023-11-12T16:21:25.070Z,63.88
2023-11-12T16:23:53.486Z,64.04
2023-11-12T16:26:21.483Z,65.08
2023-11-12T16:28:49.410Z,64.83
2023-11-12T16:31:17.489Z,66.16
2023-11-12T16:33:45.550Z,64.87
2023-11-12T16:36:13.902Z,64.31
2023-11-12T16:38:43.237Z,66.28
2023-11-12T16:41:11.151Z,66.85
2023-11-12T16:43:39.268Z,66.43
2023-11-12T16:46:07.295Z,67.85
2023-11-12T16:48:35.472Z,66.33
2023-11-12T16:51:04.545Z,67.56
2023-11-12T16:53:32.562Z,69.52
2023-11-12T16:56:02.781Z,72.14
2023-11-12T16:58:30.828Z,71.17
2023-11-12T17:00:58.941Z,69.94
2023-11-12T17:03:27.521Z,69.17
2023-11-12T17:05:58.905Z,70.51
2023-11-12T17:08:27.551Z,69.33
2023-11-12T17:10:55.451Z,70.43
2023-11-12T17:13:25.123Z,73.57
2023-11-12T17:15:53.355Z,74.18
2023-11-12T17:18:21.349Z,73.65
2023-11-12T17:20:50.032Z,73.58
2023-11-12T17:23:18.993Z,71.77
2023-11-12T17:28:17.787Z,73.92
2023-11-12T17:30:47.092Z,73.36
2023-11-12T17:33:15.016Z,72.30
2023-11-12T17:35:43.662Z,71.55
2023-11-12T17:38:11.566Z,71.33
2023-11-12T17:40:41.141Z,71.24
2023-11-12T17:43:09.836Z,71.83
2023-11-12T17:45:38.042Z,72.91
2023-11-12T17:48:07.817Z,73.41
2023-11-12T17:50:36.076Z,74.61
2023-11-12T17:53:04.030Z,74.77
2023-11-12T17:55:32.094Z,74.56
2023-11-12T17:58:00.738Z,72.90
2023-11-12T18:00:28.724Z,73.24
2023-11-12T18:02:56.705Z,72.90
2023-11-12T18:05:26.426Z,72.06
2023-11-12T18:07:54.425Z,71.70
2023-11-12T18:10:22.528Z,71.35
2023-11-12T18:12:50.663Z,71.39
2023-11-12T18:15:20.535Z,71.29
2023-11-12T18:17:48.593Z,71.22
2023-11-12T18:20:18.691Z,70.89
2023-11-12T18:22:48.098Z,70.60
2023-11-12T18:25:16.658Z,70.08
2023-11-12T18:27:44.869Z,69.99
2023-11-12T18:30:13.948Z,69.40
2023-11-12T18:32:42.411Z,68.97
2023-11-12T18:35:11.080Z,69.68
2023-11-12T18:37:41.785Z,69.61
2023-11-12T18:40:16.823Z,69.24
2023-11-12T18:42:45.194Z,68.88
2023-11-12T18:45:16.855Z,68.77
2023-11-12T18:47:45.151Z,69.41
2023-11-12T18:50:13.667Z,69.58
2023-11-12T18:52:42.584Z,69.28
2023-11-12T18:55:15.099Z,68.77
2023-11-12T18:57:43.529Z,68.65
2023-11-12T19:00:13.084Z,68.62
2023-11-12T19:02:42.347Z,69.08
2023-11-12T19:05:10.551Z,69.38
2023-11-12T19:07:39.143Z,68.76
2023-11-12T19:10:11.223Z,69.51
2023-11-12T19:12:41.948Z,69.15
2023-11-12T19:15:11.490Z,69.20
2023-11-12T19:17:44.216Z,68.20
2023-11-12T19:20:13.834Z,70.54
2023-11-12T19:22:42.571Z,71.00
2023-11-12T19:25:13.674Z,70.02
2023-11-12T19:27:43.735Z,70.60
2023-11-12T19:30:15.431Z,70.74
2023-11-12T19:32:45.670Z,70.32
2023-11-12T19:35:17.025Z,70.90
2023-11-12T19:37:45.580Z,71.29
2023-11-12T19:40:17.924Z,70.22
2023-11-12T19:42:49.980Z,72.14
2023-11-12T19:45:20.396Z,71.77
2023-11-12T19:47:52.660Z,71.35
2023-11-12T19:50:22.412Z,72.24
2023-11-12T19:52:50.963Z,72.55
2023-11-12T19:55:20.563Z,72.44
2023-11-12T19:57:53.595Z,71.30
2023-11-12T20:00:22.597Z,72.64
2023-11-12T20:02:51.363Z,71.94
2023-11-12T20:05:19.999Z,71.30
2023-11-12T20:07:48.020Z,70.84
2023-11-12T20:10:18.110Z,71.63
2023-11-12T20:12:46.388Z,71.87
2023-11-12T20:15:15.885Z,71.19
2023-11-12T20:17:44.372Z,71.63
2023-11-12T20:20:13.639Z,71.22
2023-11-12T20:22:42.519Z,70.93
2023-11-12T20:25:10.963Z,71.57
2023-11-12T20:27:41.082Z,71.07
2023-11-12T20:30:11.226Z,71.39
2023-11-12T20:32:44.169Z,71.38
2023-11-12T20:35:12.149Z,71.00
2023-11-12T20:37:40.155Z,70.85
2023-11-12T20:40:10.488Z,71.28
2023-11-12T20:42:40.251Z,70.84
2023-11-12T20:45:11.692Z,70.96
2023-11-12T20:47:41.973Z,70.81
2023-11-12T20:50:12.633Z,70.78
2023-11-12T20:52:40.702Z,70.91
2023-11-12T20:55:09.151Z,70.35
2023-11-12T20:57:37.401Z,70.57
2023-11-12T21:00:07.409Z,70.30
2023-11-12T21:02:36.296Z,70.53
2023-11-12T21:05:05.675Z,71.70
2023-11-12T21:07:34.957Z,71.17
2023-11-12T21:10:03.398Z,71.12
2023-11-12T21:12:31.365Z,72.22
2023-11-12T21:14:59.664Z,72.38
2023-11-12T21:17:27.626Z,72.50
2023-11-12T21:19:55.555Z,72.91
2023-11-12T21:22:24.797Z,72.29
2023-11-12T21:24:55.026Z,72.16
2023-11-12T21:27:23.130Z,72.42
2023-11-12T21:29:51.303Z,72.43
2023-11-12T21:32:20.496Z,72.69
2023-11-12T21:34:48.685Z,72.12
2023-11-12T21:37:18.296Z,72.76
2023-11-12T21:39:46.489Z,72.76
2023-11-12T21:42:15.920Z,72.72
2023-11-12T21:44:44.166Z,72.20
2023-11-12T21:47:12.077Z,72.21
2023-11-12T21:49:40.937Z,71.89
2023-11-12T21:52:09.423Z,72.63
2023-11-12T21:54:37.497Z,72.46
2023-11-12T21:57:07.167Z,73.34
2023-11-12T21:59:36.578Z,73.41
2023-11-12T22:02:05.734Z,73.25
2023-11-12T22:04:33.766Z,73.05
2023-11-12T22:07:02.684Z,72.93
2023-11-12T22:09:30.696Z,73.13
2023-11-12T22:11:58.781Z,73.18
2023-11-12T22:14:26.687Z,73.03
2023-11-12T22:16:57.558Z,72.95
2023-11-12T22:19:26.183Z,73.27
2023-11-12T22:21:54.249Z,72.86
2023-11-12T22:24:22.327Z,72.82
2023-11-12T22:26:51.665Z,73.18
2023-11-12T22:29:19.765Z,72.90
2023-11-12T22:31:48.060Z,72.53
2023-11-12T22:34:17.429Z,72.84
2023-11-12T22:36:45.988Z,72.86
2023-11-12T22:39:13.994Z,72.78
2023-11-12T22:41:42.052Z,72.92
2023-11-12T22:44:11.403Z,73.38
2023-11-12T22:46:39.385Z,73.62
2023-11-12T22:49:07.478Z,73.78
2023-11-12T22:51:37.170Z,73.31
2023-11-12T22:54:05.960Z,73.62
2023-11-12T22:56:34.057Z,73.76
2023-11-12T22:59:02.102Z,73.54
2023-11-12T23:01:30.159Z,73.54
2023-11-12T23:03:58.254Z,73.29
2023-11-12T23:06:26.728Z,73.38
2023-11-12T23:08:58.187Z,73.22
2023-11-12T23:11:29.778Z,73.70
2023-11-12T23:13:57.743Z,73.54
2023-11-12T23:16:28.568Z,73.29
2023-11-12T23:18:56.577Z,72.87
2023-11-12T23:21:24.601Z,73.69
2023-11-12T23:23:52.614Z,72.83
2023-11-12T23:26:21.950Z,72.47
2023-11-12T23:28:50.307Z,74.16
2023-11-12T23:31:23.163Z,72.00
2023-11-12T23:33:51.367Z,72.41
2023-11-12T23:36:22.447Z,71.98
2023-11-12T23:38:50.516Z,71.88
2023-11-12T23:41:19.296Z,72.21
2023-11-12T23:43:48.620Z,71.80
2023-11-12T23:46:17.132Z,72.10
2023-11-12T23:48:45.111Z,71.61
2023-11-12T23:51:13.725Z,71.88
2023-11-12T23:53:41.775Z,72.21
2023-11-12T23:56:16.582Z,71.61
2023-11-12T23:58:44.695Z,72.55
